createdAt,value
2017-08-30T00:00:35.096Z,0
2017-08-30T00:01:44.706Z,0
2017-08-30T00:02:53.675Z,0
2017-08-30T00:04:02.649Z,0
2017-08-30T00:05:11.302Z,0
2017-08-30T00:06:20.583Z,0
2017-08-30T00:07:29.553Z,0
2017-08-30T00:08:38.849Z,0
2017-08-30T00:09:47.497Z,0
2017-08-30T00:10:56.460Z,0
2017-08-30T00:12:06.072Z,0
2017-08-30T00:13:14.741Z,0
2017-08-30T00:14:23.715Z,0
2017-08-30T00:15:32.997Z,0
2017-08-30T00:16:41.970Z,0
2017-08-30T00:17:51.259Z,0
2017-08-30T00:19:00.559Z,0
2017-08-30T00:20:10.171Z,0
2017-08-30T00:21:19.155Z,0
2017-08-30T00:22:28.121Z,0
2017-08-30T00:23:37.107Z,0
2017-08-30T00:24:45.758Z,0
2017-08-30T00:25:54.733Z,0
2017-08-30T00:27:03.387Z,0
2017-08-30T00:28:12.987Z,0
2017-08-30T00:29:22.014Z,0
2017-08-30T00:30:30.665Z,0
2017-08-30T00:31:39.952Z,0
2017-08-30T00:32:49.550Z,0
2017-08-30T00:33:58.845Z,0
2017-08-30T00:35:07.815Z,0
2017-08-30T00:36:17.098Z,0
2017-08-30T00:37:26.396Z,0
2017-08-30T00:38:35.054Z,0
2017-08-30T00:39:44.079Z,0
2017-08-30T00:40:52.733Z,0
2017-08-30T00:42:01.400Z,0
2017-08-30T00:43:11.008Z,0
2017-08-30T00:44:19.674Z,0
2017-08-30T00:45:28.647Z,0
2017-08-30T00:46:37.941Z,0
2017-08-30T00:47:46.920Z,0
2017-08-30T00:48:55.570Z,0
2017-08-30T00:50:04.542Z,0
2017-08-30T00:51:13.512Z,0
2017-08-30T00:52:22.170Z,0
2017-08-30T00:53:31.464Z,0
2017-08-30T00:54:40.436Z,0
2017-08-30T00:55:49.416Z,0
2017-08-30T00:56:58.400Z,0
2017-08-30T00:58:07.681Z,0
2017-08-30T00:59:16.989Z,0
2017-08-30T01:00:26.296Z,0
2017-08-30T01:01:35.279Z,0
2017-08-30T01:02:44.273Z,0
2017-08-30T01:03:53.239Z,0
2017-08-30T01:05:02.203Z,0
2017-08-30T01:06:11.187Z,0
2017-08-30T01:07:20.168Z,0
2017-08-30T01:08:29.140Z,0
2017-08-30T01:09:38.108Z,0
2017-08-30T01:10:47.386Z,0
2017-08-30T01:11:56.665Z,0
2017-08-30T01:13:06.275Z,0
2017-08-30T01:14:14.925Z,0
2017-08-30T01:15:23.592Z,0
2017-08-30T01:16:32.875Z,0
2017-08-30T01:17:41.859Z,0
2017-08-30T01:18:51.146Z,0
2017-08-30T01:20:00.748Z,0
2017-08-30T01:21:09.404Z,0
2017-08-30T01:22:18.702Z,0
2017-08-30T01:23:27.743Z,0
2017-08-30T01:24:36.720Z,0
2017-08-30T01:25:46.004Z,0
2017-08-30T01:26:55.623Z,0
2017-08-30T01:28:04.919Z,0
2017-08-30T01:29:14.195Z,0
2017-08-30T01:30:22.854Z,0
2017-08-30T01:31:32.472Z,0
2017-08-30T01:32:42.097Z,0
2017-08-30T01:33:51.060Z,0
2017-08-30T01:35:00.351Z,0
2017-08-30T01:36:09.011Z,0
2017-08-30T01:37:18.292Z,0
2017-08-30T01:38:27.573Z,0
2017-08-30T01:39:36.864Z,0
2017-08-30T01:40:46.157Z,0
2017-08-30T01:41:54.825Z,0
2017-08-30T01:43:03.471Z,0
2017-08-30T01:44:12.141Z,0
2017-08-30T01:45:21.431Z,0
2017-08-30T01:46:30.400Z,0
2017-08-30T01:47:39.377Z,0
2017-08-30T01:48:48.026Z,0
2017-08-30T01:49:57.007Z,0
2017-08-30T01:51:06.284Z,0
2017-08-30T01:52:15.247Z,0
2017-08-30T01:53:24.860Z,0
2017-08-30T01:54:34.158Z,0
2017-08-30T01:55:43.444Z,0
2017-08-30T01:56:52.410Z,0
2017-08-30T01:58:01.073Z,0
2017-08-30T01:59:10.046Z,0
2017-08-30T02:00:18.762Z,0
2017-08-30T02:01:28.074Z,0
2017-08-30T02:02:37.666Z,0
2017-08-30T02:03:47.264Z,0
2017-08-30T02:04:55.923Z,0
2017-08-30T02:06:04.896Z,0
2017-08-30T02:07:13.855Z,0
2017-08-30T02:08:22.833Z,0
2017-08-30T02:09:31.503Z,0
2017-08-30T02:10:40.169Z,0
2017-08-30T02:11:49.453Z,0
2017-08-30T02:12:58.102Z,0
2017-08-30T02:14:07.383Z,0
2017-08-30T02:15:16.678Z,0
2017-08-30T02:16:26.028Z,0
2017-08-30T02:17:35.321Z,0
2017-08-30T02:18:44.909Z,0
2017-08-30T02:19:53.869Z,0
2017-08-30T02:21:02.567Z,0
2017-08-30T02:22:11.861Z,0
2017-08-30T02:23:20.841Z,0
2017-08-30T02:24:29.816Z,0
2017-08-30T02:25:39.427Z,0
2017-08-30T02:26:48.401Z,0
2017-08-30T02:27:57.691Z,0
2017-08-30T02:29:06.664Z,0
2017-08-30T02:30:16.286Z,0
2017-08-30T02:31:24.947Z,0
2017-08-30T02:32:33.911Z,0
2017-08-30T02:33:42.900Z,0
2017-08-30T02:34:51.558Z,0
2017-08-30T02:36:01.166Z,0
2017-08-30T02:37:09.825Z,0
2017-08-30T02:38:19.124Z,0
2017-08-30T02:39:28.163Z,0
2017-08-30T02:40:37.771Z,0
2017-08-30T02:41:46.755Z,0
2017-08-30T02:42:55.734Z,0
2017-08-30T02:44:05.408Z,0
2017-08-30T02:45:15.025Z,0
2017-08-30T02:46:24.069Z,0
2017-08-30T02:47:33.062Z,0
2017-08-30T02:48:42.031Z,0
2017-08-30T02:49:51.010Z,0
2017-08-30T02:50:59.671Z,0
2017-08-30T02:52:08.325Z,0
2017-08-30T02:53:16.987Z,0
2017-08-30T02:54:25.958Z,0
2017-08-30T02:55:35.248Z,0
2017-08-30T02:56:44.854Z,0
2017-08-30T02:57:54.136Z,0
2017-08-30T02:59:03.427Z,0
2017-08-30T03:00:12.705Z,0
2017-08-30T03:01:22.008Z,0
2017-08-30T03:02:30.664Z,0
2017-08-30T03:03:39.959Z,0
2017-08-30T03:04:48.995Z,0
2017-08-30T03:05:58.320Z,0
2017-08-30T03:07:06.969Z,0
2017-08-30T03:08:15.645Z,0
2017-08-30T03:09:24.612Z,0
2017-08-30T03:10:33.913Z,0
2017-08-30T03:11:42.901Z,0
2017-08-30T03:12:51.877Z,0
2017-08-30T03:14:00.854Z,0
2017-08-30T03:15:09.505Z,0
2017-08-30T03:16:18.472Z,0
2017-08-30T03:17:27.777Z,0
2017-08-30T03:18:37.068Z,0
2017-08-30T03:19:45.752Z,0
2017-08-30T03:20:54.728Z,0
2017-08-30T03:22:03.704Z,0
2017-08-30T03:23:13.051Z,0
2017-08-30T03:24:21.703Z,0
2017-08-30T03:25:30.354Z,0
2017-08-30T03:26:39.008Z,0
2017-08-30T03:27:47.983Z,0
2017-08-30T03:28:57.265Z,0
2017-08-30T03:30:06.564Z,0
2017-08-30T03:31:16.191Z,0
2017-08-30T03:32:25.495Z,0
2017-08-30T03:33:34.463Z,0
2017-08-30T03:34:43.465Z,0
2017-08-30T03:35:52.123Z,0
2017-08-30T03:37:00.793Z,0
2017-08-30T03:38:10.101Z,0
2017-08-30T03:39:18.751Z,0
2017-08-30T03:40:28.036Z,0
2017-08-30T03:41:37.003Z,0
2017-08-30T03:42:46.300Z,0
2017-08-30T03:43:55.912Z,0
2017-08-30T03:45:05.200Z,0
2017-08-30T03:46:14.499Z,0
2017-08-30T03:47:23.149Z,0
2017-08-30T03:48:32.115Z,0
2017-08-30T03:49:41.072Z,0
2017-08-30T03:50:50.056Z,0
2017-08-30T03:51:59.023Z,0
2017-08-30T03:53:08.315Z,0
2017-08-30T03:54:17.282Z,0
2017-08-30T03:55:25.931Z,0
2017-08-30T03:56:35.234Z,0
2017-08-30T03:57:44.521Z,0
2017-08-30T03:58:53.814Z,0
2017-08-30T04:00:02.797Z,0
2017-08-30T04:01:12.081Z,0
2017-08-30T04:02:21.048Z,0
2017-08-30T04:03:30.326Z,0
2017-08-30T04:04:39.612Z,0
2017-08-30T04:05:48.287Z,0
2017-08-30T04:06:57.566Z,0
2017-08-30T04:08:06.226Z,0
2017-08-30T04:09:14.886Z,0
2017-08-30T04:10:24.169Z,0
2017-08-30T04:11:33.140Z,0
2017-08-30T04:12:42.426Z,4
2017-08-30T04:13:52.030Z,0
2017-08-30T04:15:00.998Z,0
2017-08-30T04:16:10.294Z,0
2017-08-30T04:17:19.260Z,4
2017-08-30T04:18:27.931Z,4
2017-08-30T04:19:37.222Z,8
2017-08-30T04:20:46.194Z,4
2017-08-30T04:21:55.187Z,8
2017-08-30T04:23:04.161Z,8
2017-08-30T04:24:13.453Z,12
2017-08-30T04:25:22.462Z,12
2017-08-30T04:26:31.487Z,12
2017-08-30T04:27:40.533Z,16
2017-08-30T04:28:49.876Z,20
2017-08-30T04:29:58.955Z,24
2017-08-30T04:31:08.598Z,28
2017-08-30T04:32:17.270Z,28
2017-08-30T04:33:27.206Z,32
2017-08-30T04:34:36.187Z,40
2017-08-30T04:35:45.156Z,44
2017-08-30T04:36:55.392Z,44
2017-08-30T04:38:04.675Z,44
2017-08-30T04:39:13.325Z,44
2017-08-30T04:40:22.608Z,44
2017-08-30T04:41:32.358Z,40
2017-08-30T04:42:41.034Z,44
2017-08-30T04:43:50.010Z,52
2017-08-30T04:44:59.308Z,64
2017-08-30T04:46:08.286Z,76
2017-08-30T04:47:17.253Z,92
2017-08-30T04:48:26.547Z,104
2017-08-30T04:49:35.215Z,120
2017-08-30T04:50:44.496Z,136
2017-08-30T04:51:53.467Z,148
2017-08-30T04:53:02.443Z,156
2017-08-30T04:54:11.089Z,168
2017-08-30T04:55:20.380Z,176
2017-08-30T04:56:29.679Z,176
2017-08-30T04:57:38.660Z,176
2017-08-30T04:58:47.315Z,176
2017-08-30T04:59:56.289Z,180
2017-08-30T05:01:05.281Z,184
2017-08-30T05:02:14.574Z,184
2017-08-30T05:03:23.897Z,180
2017-08-30T05:04:32.551Z,184
2017-08-30T05:05:41.846Z,184
2017-08-30T05:06:50.833Z,184
2017-08-30T05:08:00.759Z,192
2017-08-30T05:09:09.730Z,196
2017-08-30T05:10:19.035Z,204
2017-08-30T05:11:28.329Z,212
2017-08-30T05:12:37.924Z,216
2017-08-30T05:13:47.217Z,216
2017-08-30T05:14:55.871Z,224
2017-08-30T05:16:05.149Z,240
2017-08-30T05:17:13.808Z,268
2017-08-30T05:18:23.092Z,292
2017-08-30T05:19:32.386Z,312
2017-08-30T05:20:41.122Z,344
2017-08-30T05:21:50.414Z,380
2017-08-30T05:22:59.693Z,404
2017-08-30T05:24:08.684Z,416
2017-08-30T05:25:17.343Z,412
2017-08-30T05:26:25.999Z,404
2017-08-30T05:27:35.299Z,392
2017-08-30T05:28:44.273Z,392
2017-08-30T05:29:53.265Z,408
2017-08-30T05:31:02.589Z,428
2017-08-30T05:32:11.574Z,488
2017-08-30T05:33:20.288Z,556
2017-08-30T05:34:29.312Z,596
2017-08-30T05:35:38.633Z,656
2017-08-30T05:36:47.370Z,712
2017-08-30T05:37:56.349Z,740
2017-08-30T05:39:05.337Z,816
2017-08-30T05:40:14.312Z,864
2017-08-30T05:41:23.338Z,832
2017-08-30T05:42:32.009Z,816
2017-08-30T05:43:40.680Z,812
2017-08-30T05:44:49.347Z,840
2017-08-30T05:45:58.323Z,888
2017-08-30T05:47:07.919Z,932
2017-08-30T05:48:16.602Z,972
2017-08-30T05:49:25.891Z,1016
2017-08-30T05:50:34.542Z,1072
2017-08-30T05:51:43.507Z,1140
2017-08-30T05:52:52.526Z,1208
2017-08-30T05:54:01.212Z,1312
2017-08-30T05:55:09.905Z,1476
2017-08-30T05:56:18.918Z,1488
2017-08-30T05:57:28.879Z,1464
2017-08-30T05:58:37.849Z,1476
2017-08-30T05:59:47.484Z,1508
2017-08-30T06:00:56.455Z,1552
2017-08-30T06:02:05.487Z,1596
2017-08-30T06:03:14.469Z,1628
2017-08-30T06:04:23.159Z,1652
2017-08-30T06:05:32.470Z,1672
2017-08-30T06:06:41.196Z,1700
2017-08-30T06:07:50.201Z,1736
2017-08-30T06:08:59.193Z,1780
2017-08-30T06:10:08.702Z,1816
2017-08-30T06:11:18.311Z,1824
2017-08-30T06:12:27.088Z,1844
2017-08-30T06:13:36.382Z,1844
2017-08-30T06:14:45.037Z,1864
2017-08-30T06:15:54.692Z,1884
2017-08-30T06:17:03.789Z,1960
2017-08-30T06:18:12.449Z,2032
2017-08-30T06:19:22.091Z,2144
2017-08-30T06:20:31.129Z,2192
2017-08-30T06:21:41.251Z,2196
2017-08-30T06:22:50.841Z,2184
2017-08-30T06:24:00.540Z,2152
2017-08-30T06:25:10.309Z,2244
2017-08-30T06:26:19.945Z,2272
2017-08-30T06:27:28.616Z,2200
2017-08-30T06:28:38.104Z,2104
2017-08-30T06:29:47.094Z,2052
2017-08-30T06:30:56.732Z,1980
2017-08-30T06:32:06.102Z,1796
2017-08-30T06:33:14.779Z,1812
2017-08-30T06:34:24.648Z,2056
2017-08-30T06:35:34.025Z,2200
2017-08-30T06:36:43.998Z,2312
2017-08-30T06:37:53.005Z,2492
2017-08-30T06:39:02.301Z,2488
2017-08-30T06:40:11.921Z,2436
2017-08-30T06:41:20.916Z,2440
2017-08-30T06:42:29.892Z,2368
2017-08-30T06:43:38.862Z,2324
2017-08-30T06:44:47.861Z,2256
2017-08-30T06:45:56.541Z,2228
2017-08-30T06:47:05.822Z,2176
2017-08-30T06:48:14.813Z,2068
2017-08-30T06:49:24.106Z,2028
2017-08-30T06:50:33.106Z,1984
2017-08-30T06:51:42.084Z,1900
2017-08-30T06:52:50.793Z,1748
2017-08-30T06:54:00.097Z,1612
2017-08-30T06:55:09.401Z,1472
2017-08-30T06:56:18.706Z,1372
2017-08-30T06:57:27.388Z,1332
2017-08-30T06:58:36.368Z,1332
2017-08-30T06:59:46.313Z,1424
2017-08-30T07:00:54.971Z,1536
2017-08-30T07:02:03.676Z,1628
2017-08-30T07:03:12.980Z,1592
2017-08-30T07:04:21.970Z,1496
2017-08-30T07:05:30.952Z,1452
2017-08-30T07:06:39.996Z,1312
2017-08-30T07:07:48.674Z,1124
2017-08-30T07:08:58.305Z,996
2017-08-30T07:10:07.611Z,908
2017-08-30T07:11:16.927Z,824
2017-08-30T07:12:26.265Z,748
2017-08-30T07:13:35.879Z,652
2017-08-30T07:14:44.884Z,544
2017-08-30T07:15:53.547Z,452
2017-08-30T07:17:03.481Z,400
2017-08-30T07:18:12.495Z,404
2017-08-30T07:19:21.172Z,452
2017-08-30T07:20:30.481Z,576
2017-08-30T07:21:39.133Z,788
2017-08-30T07:22:48.108Z,1104
2017-08-30T07:23:57.104Z,1488
2017-08-30T07:25:06.095Z,1812
2017-08-30T07:26:15.069Z,2100
2017-08-30T07:27:24.085Z,2020
2017-08-30T07:28:33.080Z,1752
2017-08-30T07:29:41.812Z,1592
2017-08-30T07:30:50.464Z,1344
2017-08-30T07:31:59.773Z,1536
2017-08-30T07:33:08.737Z,1976
2017-08-30T07:34:18.017Z,2052
2017-08-30T07:35:27.049Z,1632
2017-08-30T07:36:36.055Z,1500
2017-08-30T07:37:45.715Z,1524
2017-08-30T07:38:55.364Z,1580
2017-08-30T07:40:04.065Z,1540
2017-08-30T07:41:13.050Z,1492
2017-08-30T07:42:22.034Z,1316
2017-08-30T07:43:31.336Z,1240
2017-08-30T07:44:39.988Z,1208
2017-08-30T07:45:48.980Z,1292
2017-08-30T07:46:57.672Z,1336
2017-08-30T07:48:06.744Z,1268
2017-08-30T07:49:16.035Z,1252
2017-08-30T07:50:24.687Z,1264
2017-08-30T07:51:33.971Z,1552
2017-08-30T07:52:43.271Z,1904
2017-08-30T07:53:52.266Z,2248
2017-08-30T07:55:01.250Z,2756
2017-08-30T07:56:29.457Z,2800
2017-08-30T07:57:38.785Z,2624
2017-08-30T07:58:48.072Z,2576
2017-08-30T07:59:57.394Z,2324
2017-08-30T08:01:07.051Z,2168
2017-08-30T08:02:16.348Z,2364
2017-08-30T08:03:25.330Z,2340
2017-08-30T08:04:33.982Z,2388
2017-08-30T08:05:42.635Z,2780
2017-08-30T08:06:51.927Z,3560
2017-08-30T08:08:00.570Z,4664
2017-08-30T08:09:09.536Z,4832
2017-08-30T08:10:18.818Z,4488
2017-08-30T08:11:27.812Z,3788
2017-08-30T08:12:37.425Z,3716
2017-08-30T08:13:46.407Z,3024
2017-08-30T08:14:56.332Z,2548
2017-08-30T08:16:05.322Z,2272
2017-08-30T08:17:14.002Z,2128
2017-08-30T08:18:22.988Z,2076
2017-08-30T08:19:31.969Z,1964
2017-08-30T08:23:13.305Z,1752
2017-08-30T08:24:22.029Z,1764
2017-08-30T08:25:31.130Z,1800
2017-08-30T08:26:40.412Z,1892
2017-08-30T08:27:49.395Z,1884
2017-08-30T08:31:31.051Z,1196
2017-08-30T08:35:12.414Z,820
2017-08-30T08:41:27.464Z,524
2017-08-30T08:42:36.755Z,488
2017-08-30T08:46:19.070Z,624
2017-08-30T08:47:28.056Z,708
2017-08-30T08:53:42.420Z,1436
2017-08-30T08:54:51.081Z,1528
2017-08-30T09:02:20.965Z,1732
2017-08-30T09:03:30.562Z,2260
2017-08-30T09:04:39.858Z,3284
2017-08-30T09:05:48.837Z,3588
2017-08-30T09:06:57.519Z,3744
2017-08-30T09:08:06.522Z,3776
2017-08-30T09:09:16.455Z,3600
2017-08-30T09:10:25.184Z,3940
2017-08-30T09:11:33.850Z,4220
2017-08-30T09:12:42.501Z,4196
2017-08-30T09:13:51.474Z,4040
2017-08-30T09:15:01.084Z,3960
2017-08-30T09:16:10.374Z,3912
2017-08-30T09:17:19.365Z,3932
2017-08-30T09:18:28.649Z,3884
2017-08-30T09:19:37.624Z,3756
2017-08-30T09:20:47.251Z,3920
2017-08-30T09:21:56.246Z,3488
2017-08-30T09:23:05.544Z,3112
2017-08-30T09:24:14.200Z,2860
2017-08-30T09:25:23.499Z,2428
2017-08-30T09:26:32.466Z,2116
2017-08-30T09:27:41.140Z,2024
2017-08-30T09:28:50.429Z,2148
2017-08-30T09:29:59.709Z,2484
2017-08-30T09:31:08.708Z,2556
2017-08-30T09:32:18.026Z,2760
2017-08-30T09:33:27.341Z,3156
2017-08-30T09:34:36.636Z,3336
2017-08-30T09:35:46.552Z,3268
2017-08-30T09:36:55.520Z,3004
2017-08-30T09:38:04.194Z,2744
2017-08-30T09:39:13.165Z,2644
2017-08-30T09:40:22.132Z,2548
2017-08-30T09:41:31.148Z,2352
2017-08-30T09:42:40.130Z,2280
2017-08-30T09:43:49.106Z,2452
2017-08-30T09:44:58.086Z,2600
2017-08-30T09:46:07.077Z,2720
2017-08-30T09:47:16.374Z,2540
2017-08-30T09:48:25.693Z,2712
2017-08-30T09:49:34.695Z,2908
2017-08-30T09:50:44.023Z,2560
2017-08-30T09:51:52.992Z,1944
2017-08-30T09:53:01.977Z,1552
2017-08-30T09:54:10.943Z,1392
2017-08-30T09:55:19.597Z,1300
2017-08-30T09:56:28.627Z,1372
2017-08-30T09:57:37.279Z,1384
2017-08-30T09:58:46.258Z,1640
2017-08-30T09:59:55.259Z,2248
2017-08-30T10:01:04.020Z,2680
2017-08-30T10:02:12.984Z,3216
2017-08-30T10:03:22.293Z,3724
2017-08-30T10:04:31.665Z,3904
2017-08-30T10:05:40.959Z,3472
2017-08-30T10:06:49.936Z,3364
2017-08-30T10:07:58.590Z,3328
2017-08-30T10:09:08.084Z,3008
2017-08-30T10:10:17.800Z,2692
2017-08-30T10:11:27.390Z,2476
2017-08-30T10:12:37.549Z,2428
2017-08-30T10:13:48.219Z,2300
2017-08-30T10:14:57.819Z,2064
2017-08-30T10:16:07.529Z,1832
2017-08-30T10:17:16.831Z,1784
2017-08-30T10:18:25.487Z,1980
2017-08-30T10:19:34.776Z,2056
2017-08-30T10:20:43.745Z,2124
2017-08-30T10:21:52.727Z,2188
2017-08-30T10:23:01.697Z,2168
2017-08-30T10:24:10.990Z,2256
2017-08-30T10:25:20.333Z,2636
2017-08-30T10:26:29.304Z,3044
2017-08-30T10:27:37.957Z,2956
2017-08-30T10:28:47.241Z,2896
2017-08-30T10:29:56.221Z,3016
2017-08-30T10:31:05.178Z,3104
2017-08-30T10:32:14.459Z,3100
2017-08-30T10:33:23.109Z,3076
2017-08-30T10:34:32.080Z,3052
2017-08-30T10:35:41.052Z,3044
2017-08-30T10:36:49.708Z,2996
2017-08-30T10:37:59.327Z,2928
2017-08-30T10:39:09.252Z,2840
2017-08-30T10:40:18.529Z,2760
2017-08-30T10:41:27.539Z,2704
2017-08-30T10:42:36.510Z,2636
2017-08-30T10:43:45.530Z,2600
2017-08-30T10:44:54.192Z,2580
2017-08-30T10:46:03.169Z,2608
2017-08-30T10:47:12.137Z,2660
2017-08-30T10:48:21.438Z,2704
2017-08-30T10:49:30.121Z,2696
2017-08-30T10:50:39.086Z,2660
2017-08-30T10:51:47.746Z,2588
2017-08-30T10:52:56.405Z,2520
2017-08-30T10:54:05.378Z,2480
2017-08-30T10:55:14.361Z,2516
2017-08-30T10:56:23.012Z,2564
2017-08-30T10:57:32.289Z,2584
2017-08-30T10:58:40.942Z,2584
2017-08-30T10:59:49.916Z,2540
2017-08-30T11:00:59.207Z,2484
2017-08-30T11:02:08.177Z,2452
2017-08-30T11:03:17.467Z,2480
2017-08-30T11:04:26.756Z,2560
2017-08-30T11:05:35.732Z,2600
2017-08-30T11:06:44.445Z,2688
2017-08-30T11:07:53.438Z,2796
2017-08-30T11:09:02.411Z,2780
2017-08-30T11:10:11.064Z,2752
2017-08-30T11:11:20.352Z,2696
2017-08-30T11:12:30.290Z,2608
2017-08-30T11:13:38.944Z,2540
2017-08-30T11:14:48.223Z,2440
2017-08-30T11:15:57.586Z,2336
2017-08-30T11:17:06.556Z,2224
2017-08-30T11:18:15.541Z,2108
2017-08-30T11:19:24.512Z,1992
2017-08-30T11:20:33.629Z,1900
2017-08-30T11:21:42.932Z,1852
2017-08-30T11:22:52.202Z,1836
2017-08-30T11:24:01.164Z,1816
2017-08-30T11:25:10.138Z,1776
2017-08-30T11:26:19.098Z,1740
2017-08-30T11:27:28.378Z,1676
2017-08-30T11:28:37.344Z,1664
2017-08-30T11:29:46.626Z,1676
2017-08-30T11:30:55.604Z,1704
2017-08-30T11:32:04.899Z,1720
2017-08-30T11:33:13.880Z,1756
2017-08-30T11:34:23.539Z,1776
2017-08-30T11:35:32.227Z,1752
2017-08-30T11:36:41.217Z,1732
2017-08-30T11:37:49.874Z,1784
2017-08-30T11:38:59.145Z,1880
2017-08-30T11:40:07.807Z,2016
2017-08-30T11:41:16.769Z,2136
2017-08-30T11:42:25.416Z,2184
2017-08-30T11:43:34.065Z,2224
2017-08-30T11:44:43.350Z,2292
2017-08-30T11:45:52.633Z,2288
2017-08-30T11:47:02.549Z,2280
2017-08-30T11:48:11.834Z,2292
2017-08-30T11:49:20.809Z,2308
2017-08-30T11:50:30.081Z,2288
2017-08-30T11:51:39.691Z,2284
2017-08-30T11:52:49.002Z,2276
2017-08-30T11:53:57.973Z,2212
2017-08-30T11:55:06.948Z,2132
2017-08-30T11:56:15.908Z,2068
2017-08-30T11:57:24.878Z,2028
2017-08-30T11:58:34.475Z,2036
2017-08-30T11:59:44.076Z,2068
2017-08-30T12:00:53.042Z,2180
2017-08-30T12:02:02.015Z,2288
2017-08-30T12:03:11.006Z,2408
2017-08-30T12:04:20.725Z,2408
2017-08-30T12:05:29.526Z,2416
2017-08-30T12:06:40.211Z,2408
2017-08-30T12:07:49.814Z,2368
2017-08-30T12:08:59.244Z,2356
2017-08-30T12:10:08.668Z,2340
2017-08-30T12:11:18.067Z,2352
2017-08-30T12:12:28.459Z,2384
2017-08-30T12:13:37.453Z,2420
2017-08-30T12:14:46.119Z,2416
2017-08-30T12:15:55.577Z,2376
2017-08-30T12:17:05.706Z,2472
2017-08-30T12:18:15.855Z,2380
2017-08-30T12:19:24.958Z,2376
2017-08-30T12:20:34.953Z,2336
2017-08-30T12:21:45.824Z,2272
2017-08-30T12:22:54.639Z,2184
2017-08-30T12:24:03.930Z,2128
2017-08-30T12:25:12.612Z,2124
2017-08-30T12:26:22.034Z,2116
2017-08-30T12:27:30.696Z,2096
2017-08-30T12:28:39.664Z,2100
2017-08-30T12:29:48.958Z,2204
2017-08-30T12:30:58.253Z,2236
2017-08-30T12:32:07.211Z,2104
2017-08-30T12:33:16.189Z,2048
2017-08-30T12:34:25.487Z,1956
2017-08-30T12:35:34.470Z,1772
2017-08-30T12:36:43.444Z,1656
2017-08-30T12:37:52.739Z,1608
2017-08-30T12:39:01.715Z,1588
2017-08-30T12:40:11.016Z,1664
2017-08-30T12:41:20.048Z,1576
2017-08-30T12:42:29.356Z,1472
2017-08-30T12:43:38.331Z,1216
2017-08-30T12:44:47.290Z,1208
2017-08-30T12:45:56.253Z,1444
2017-08-30T12:47:05.576Z,1580
2017-08-30T12:48:14.569Z,1552
2017-08-30T12:49:23.612Z,1680
2017-08-30T12:50:32.909Z,1684
2017-08-30T12:51:41.869Z,1756
2017-08-30T12:52:50.836Z,1960
2017-08-30T12:54:00.767Z,2416
2017-08-30T12:55:09.742Z,2112
2017-08-30T12:56:19.032Z,1928
2017-08-30T12:57:27.694Z,2136
2017-08-30T12:58:37.433Z,2416
2017-08-30T12:59:46.728Z,2504
2017-08-30T13:00:56.011Z,2328
2017-08-30T13:02:04.669Z,2212
2017-08-30T13:03:14.597Z,2440
2017-08-30T13:04:24.040Z,2376
2017-08-30T13:05:33.339Z,2392
2017-08-30T13:06:42.301Z,2428
2017-08-30T13:07:51.266Z,2380
2017-08-30T13:09:00.236Z,2260
2017-08-30T13:10:09.991Z,2140
2017-08-30T13:11:19.272Z,1988
2017-08-30T13:12:28.873Z,1900
2017-08-30T13:13:38.149Z,1964
2017-08-30T13:14:46.813Z,1984
2017-08-30T13:15:56.156Z,1952
2017-08-30T13:17:05.437Z,1712
2017-08-30T13:18:14.403Z,1360
2017-08-30T13:19:23.685Z,1228
2017-08-30T13:20:32.676Z,1080
2017-08-30T13:21:41.487Z,1004
2017-08-30T13:22:50.474Z,1252
2017-08-30T13:23:59.440Z,1500
2017-08-30T13:25:08.092Z,1620
2017-08-30T13:26:17.376Z,1496
2017-08-30T13:27:26.814Z,1580
2017-08-30T13:28:35.772Z,2000
2017-08-30T13:29:44.751Z,2208
2017-08-30T13:30:54.041Z,2220
2017-08-30T13:32:03.354Z,1944
2017-08-30T13:33:13.464Z,1892
2017-08-30T13:34:22.116Z,2068
2017-08-30T13:35:30.775Z,2068
2017-08-30T13:36:40.054Z,2104
2017-08-30T13:37:49.644Z,2044
2017-08-30T13:38:58.396Z,1944
2017-08-30T13:40:07.067Z,1860
2017-08-30T13:41:16.343Z,1728
2017-08-30T13:42:25.627Z,1764
2017-08-30T13:43:34.283Z,1776
2017-08-30T13:44:43.565Z,1600
2017-08-30T13:45:52.531Z,1368
2017-08-30T13:47:01.187Z,1380
2017-08-30T13:48:09.839Z,1440
2017-08-30T13:49:18.829Z,1452
2017-08-30T13:50:28.023Z,1276
2017-08-30T13:51:37.621Z,1112
2017-08-30T13:52:46.915Z,1072
2017-08-30T13:53:55.916Z,1124
2017-08-30T13:55:04.593Z,1136
2017-08-30T13:56:13.966Z,1068
2017-08-30T13:57:22.610Z,984
2017-08-30T13:58:31.581Z,1000
2017-08-30T13:59:40.864Z,940
2017-08-30T14:00:49.838Z,728
2017-08-30T14:01:59.575Z,648
2017-08-30T14:03:08.238Z,620
2017-08-30T14:04:17.538Z,776
2017-08-30T14:05:26.197Z,1040
2017-08-30T14:06:34.863Z,1204
2017-08-30T14:07:44.048Z,1332
2017-08-30T14:08:53.386Z,1476
2017-08-30T14:10:02.799Z,1532
2017-08-30T14:11:12.418Z,1540
2017-08-30T14:12:21.479Z,1408
2017-08-30T14:13:30.871Z,1232
2017-08-30T14:14:39.519Z,1384
2017-08-30T14:15:48.494Z,1576
2017-08-30T14:16:57.471Z,1712
2017-08-30T14:18:06.772Z,1744
2017-08-30T14:19:15.792Z,1652
2017-08-30T14:20:24.771Z,1628
2017-08-30T14:21:33.729Z,1484
2017-08-30T14:22:42.699Z,1308
2017-08-30T14:23:51.661Z,1032
2017-08-30T14:25:00.462Z,780
2017-08-30T14:26:09.769Z,832
2017-08-30T14:27:18.420Z,940
2017-08-30T14:28:27.395Z,852
2017-08-30T14:29:36.685Z,628
2017-08-30T14:30:45.716Z,560
2017-08-30T14:31:54.685Z,468
2017-08-30T14:33:03.992Z,440
2017-08-30T14:34:12.963Z,428
2017-08-30T14:35:21.614Z,516
2017-08-30T14:36:31.381Z,716
2017-08-30T14:37:40.350Z,884
2017-08-30T14:38:49.325Z,984
2017-08-30T14:39:57.972Z,1044
2017-08-30T14:41:07.132Z,1136
2017-08-30T14:42:17.550Z,1220
2017-08-30T14:43:26.836Z,1348
2017-08-30T14:44:35.811Z,1416
2017-08-30T14:45:44.778Z,1452
2017-08-30T14:46:54.065Z,1616
2017-08-30T14:48:03.342Z,1756
2017-08-30T14:49:12.317Z,1780
2017-08-30T14:50:21.621Z,1704
2017-08-30T14:51:30.296Z,1680
2017-08-30T14:52:39.295Z,1700
2017-08-30T14:53:48.923Z,1720
2017-08-30T14:54:57.894Z,1536
2017-08-30T14:56:06.877Z,1436
2017-08-30T14:57:16.172Z,1316
2017-08-30T14:58:24.849Z,1272
2017-08-30T14:59:34.300Z,1276
2017-08-30T15:00:43.285Z,1344
2017-08-30T15:01:52.275Z,1392
2017-08-30T15:03:01.262Z,1376
2017-08-30T15:04:10.551Z,1392
2017-08-30T15:05:19.516Z,1480
2017-08-30T15:06:28.534Z,1480
2017-08-30T15:07:37.199Z,1400
2017-08-30T15:08:46.174Z,1356
2017-08-30T15:09:54.824Z,1392
2017-08-30T15:11:04.420Z,1400
2017-08-30T15:12:13.390Z,1404
2017-08-30T15:13:22.748Z,1372
2017-08-30T15:14:31.718Z,1320
2017-08-30T15:15:40.695Z,1296
2017-08-30T15:16:50.139Z,1280
2017-08-30T15:17:59.103Z,1268
2017-08-30T15:19:08.388Z,1236
2017-08-30T15:20:17.032Z,1156
2017-08-30T15:21:26.325Z,1000
2017-08-30T15:22:35.324Z,868
2017-08-30T15:23:44.610Z,820
2017-08-30T15:24:53.956Z,820
2017-08-30T15:26:03.562Z,712
2017-08-30T15:27:13.499Z,748
2017-08-30T15:28:22.157Z,856
2017-08-30T15:29:31.125Z,952
2017-08-30T15:30:40.397Z,1032
2017-08-30T15:31:49.377Z,1032
2017-08-30T15:32:58.978Z,1016
2017-08-30T15:34:08.066Z,944
2017-08-30T15:35:17.368Z,820
2017-08-30T15:36:26.330Z,800
2017-08-30T15:37:35.613Z,896
2017-08-30T15:38:44.606Z,916
2017-08-30T15:39:53.319Z,872
2017-08-30T15:41:02.280Z,884
2017-08-30T15:42:11.572Z,884
2017-08-30T15:43:20.863Z,820
2017-08-30T15:44:30.157Z,688
2017-08-30T15:45:39.436Z,596
2017-08-30T15:46:48.409Z,544
2017-08-30T15:47:58.006Z,504
2017-08-30T15:49:06.974Z,484
2017-08-30T15:50:16.271Z,476
2017-08-30T15:51:25.245Z,484
2017-08-30T15:52:34.220Z,496
2017-08-30T15:53:43.524Z,504
2017-08-30T15:54:53.136Z,516
2017-08-30T15:56:02.289Z,540
2017-08-30T15:57:11.896Z,568
2017-08-30T15:58:21.108Z,592
2017-08-30T15:59:30.267Z,600
2017-08-30T16:00:38.910Z,672
2017-08-30T16:01:47.911Z,668
2017-08-30T16:02:57.525Z,652
2017-08-30T16:04:06.291Z,640
2017-08-30T16:05:15.256Z,572
2017-08-30T16:06:24.237Z,572
2017-08-30T16:07:34.054Z,576
2017-08-30T16:08:43.022Z,612
2017-08-30T16:09:51.994Z,640
2017-08-30T16:11:00.682Z,656
2017-08-30T16:12:11.402Z,688
2017-08-30T16:13:20.401Z,668
2017-08-30T16:14:29.109Z,660
2017-08-30T16:15:37.786Z,648
2017-08-30T16:16:47.828Z,552
2017-08-30T16:17:56.491Z,496
2017-08-30T16:19:05.468Z,504
2017-08-30T16:20:14.257Z,532